sensor_id;sensor_type;location;lat;lon;timestamp;pressure;altitude;pressure_sealevel;temperature;humidity
9141;BME280;46330;50.822;7.126;2023-08-24T00:01:10;101135.78;;;19.53;89.44
9141;BME280;46330;50.822;7.126;2023-08-24T00:03:38;101146.19;;;19.58;89.42
9141;BME280;46330;50.822;7.126;2023-08-24T00:06:06;101141.75;;;19.58;88.88
9141;BME280;46330;50.822;7.126;2023-08-24T00:08:34;101149.97;;;19.52;89.51
9141;BME280;46330;50.822;7.126;2023-08-24T00:11:02;101147.84;;;19.42;89.87
9141;BME280;46330;50.822;7.126;2023-08-24T00:13:30;101142.72;;;19.37;90.46
9141;BME280;46330;50.822;7.126;2023-08-24T00:15:58;101136.97;;;19.27;90.70
9141;BME280;46330;50.822;7.126;2023-08-24T00:18:27;101133.84;;;19.19;90.92
9141;BME280;46330;50.822;7.126;2023-08-24T00:21:12;101133.41;;;19.28;91.37
9141;BME280;46330;50.822;7.126;2023-08-24T00:24:00;101124.56;;;19.09;91.89
9141;BME280;46330;50.822;7.126;2023-08-24T00:26:28;101123.94;;;19.04;92.13
9141;BME280;46330;50.822;7.126;2023-08-24T00:28:56;101120.50;;;19.02;92.58
9141;BME280;46330;50.822;7.126;2023-08-24T00:31:23;101122.50;;;18.97;92.33
9141;BME280;46330;50.822;7.126;2023-08-24T00:33:52;101125.25;;;18.96;92.64
9141;BME280;46330;50.822;7.126;2023-08-24T00:36:38;101125.56;;;18.88;93.22
9141;BME280;46330;50.822;7.126;2023-08-24T00:39:06;101136.91;;;18.92;93.45
9141;BME280;46330;50.822;7.126;2023-08-24T00:41:36;101132.66;;;18.88;93.79
9141;BME280;46330;50.822;7.126;2023-08-24T00:44:04;101132.03;;;18.83;94.35
9141;BME280;46330;50.822;7.126;2023-08-24T00:46:33;101131.78;;;18.87;93.87
9141;BME280;46330;50.822;7.126;2023-08-24T00:49:03;101130.38;;;18.80;94.40
9141;BME280;46330;50.822;7.126;2023-08-24T00:51:31;101128.78;;;18.76;94.76
9141;BME280;46330;50.822;7.126;2023-08-24T00:53:59;101131.28;;;18.79;94.51
9141;BME280;46330;50.822;7.126;2023-08-24T00:56:28;101130.44;;;18.78;94.92
9141;BME280;46330;50.822;7.126;2023-08-24T00:58:57;101133.84;;;18.80;94.43
9141;BME280;46330;50.822;7.126;2023-08-24T01:01:26;101121.16;;;18.68;95.40
9141;BME280;46330;50.822;7.126;2023-08-24T01:03:54;101118.50;;;18.68;95.38
9141;BME280;46330;50.822;7.126;2023-08-24T01:06:23;101114.16;;;18.67;95.49
9141;BME280;46330;50.822;7.126;2023-08-24T01:08:52;101111.72;;;18.63;95.73
9141;BME280;46330;50.822;7.126;2023-08-24T01:11:22;101115.56;;;18.56;96.09
9141;BME280;46330;50.822;7.126;2023-08-24T01:13:54;101103.69;;;18.44;96.58
9141;BME280;46330;50.822;7.126;2023-08-24T01:16:27;101108.38;;;18.38;97.36
9141;BME280;46330;50.822;7.126;2023-08-24T01:18:55;101111.53;;;18.27;98.43
9141;BME280;46330;50.822;7.126;2023-08-24T01:21:26;101112.13;;;18.34;98.47
9141;BME280;46330;50.822;7.126;2023-08-24T01:23:57;101110.97;;;18.19;98.96
9141;BME280;46330;50.822;7.126;2023-08-24T01:26:32;101113.69;;;18.17;99.84
9141;BME280;46330;50.822;7.126;2023-08-24T01:29:00;101112.88;;;18.15;99.98
9141;BME280;46330;50.822;7.126;2023-08-24T01:31:28;101112.63;;;18.21;99.75
9141;BME280;46330;50.822;7.126;2023-08-24T01:33:57;101103.75;;;18.22;100.00
9141;BME280;46330;50.822;7.126;2023-08-24T01:36:25;101107.47;;;18.18;99.88
9141;BME280;46330;50.822;7.126;2023-08-24T01:38:53;101109.94;;;18.23;100.00
9141;BME280;46330;50.822;7.126;2023-08-24T01:41:24;101111.91;;;18.18;100.00
9141;BME280;46330;50.822;7.126;2023-08-24T01:43:55;101094.75;;;18.06;100.00
9141;BME280;46330;50.822;7.126;2023-08-24T01:46:24;101099.09;;;18.09;100.00
9141;BME280;46330;50.822;7.126;2023-08-24T01:48:53;101096.47;;;18.07;100.00
9141;BME280;46330;50.822;7.126;2023-08-24T01:51:22;101099.38;;;18.01;100.00
9141;BME280;46330;50.822;7.126;2023-08-24T01:53:50;101091.22;;;18.06;100.00
9141;BME280;46330;50.822;7.126;2023-08-24T01:56:19;101082.47;;;18.05;100.00
9141;BME280;46330;50.822;7.126;2023-08-24T01:58:47;101084.50;;;17.99;100.00
9141;BME280;46330;50.822;7.126;2023-08-24T02:01:16;101084.56;;;17.97;100.00
9141;BME280;46330;50.822;7.126;2023-08-24T02:03:44;101075.84;;;17.95;100.00
9141;BME280;46330;50.822;7.126;2023-08-24T02:06:12;101066.84;;;17.99;100.00
9141;BME280;46330;50.822;7.126;2023-08-24T02:08:39;101055.56;;;17.94;100.00
9141;BME280;46330;50.822;7.126;2023-08-24T02:11:07;101056.53;;;17.93;100.00
9141;BME280;46330;50.822;7.126;2023-08-24T02:13:35;101047.03;;;17.88;100.00
9141;BME280;46330;50.822;7.126;2023-08-24T02:16:03;101050.16;;;17.77;100.00
9141;BME280;46330;50.822;7.126;2023-08-24T02:18:32;101047.41;;;17.79;100.00
9141;BME280;46330;50.822;7.126;2023-08-24T02:21:00;101047.56;;;17.76;100.00
9141;BME280;46330;50.822;7.126;2023-08-24T02:23:28;101049.94;;;17.82;100.00
9141;BME280;46330;50.822;7.126;2023-08-24T02:25:59;101048.41;;;17.76;100.00
9141;BME280;46330;50.822;7.126;2023-08-24T02:28:27;101048.56;;;17.73;100.00
9141;BME280;46330;50.822;7.126;2023-08-24T02:30:55;101051.25;;;17.71;100.00
9141;BME280;46330;50.822;7.126;2023-08-24T02:33:27;101044.25;;;17.70;100.00
9141;BME280;46330;50.822;7.126;2023-08-24T02:35:56;101034.28;;;17.77;100.00
9141;BME280;46330;50.822;7.126;2023-08-24T02:38:24;101034.00;;;17.83;100.00
9141;BME280;46330;50.822;7.126;2023-08-24T02:40:59;101026.19;;;17.80;100.00
9141;BME280;46330;50.822;7.126;2023-08-24T02:43:44;101024.72;;;17.73;100.00
9141;BME280;46330;50.822;7.126;2023-08-24T02:46:13;101027.34;;;17.75;100.00
9141;BME280;46330;50.822;7.126;2023-08-24T02:48:40;101022.22;;;17.70;100.00
9141;BME280;46330;50.822;7.126;2023-08-24T02:51:10;101028.91;;;17.79;100.00
9141;BME280;46330;50.822;7.126;2023-08-24T02:53:38;101020.97;;;17.79;100.00
9141;BME280;46330;50.822;7.126;2023-08-24T02:56:05;101025.22;;;17.83;100.00
9141;BME280;46330;50.822;7.126;2023-08-24T02:58:33;101026.06;;;17.83;100.00
9141;BME280;46330;50.822;7.126;2023-08-24T03:01:03;101029.31;;;17.90;100.00
9141;BME280;46330;50.822;7.126;2023-08-24T03:03:32;101028.19;;;17.95;100.00
9141;BME280;46330;50.822;7.126;2023-08-24T03:06:02;101031.56;;;17.99;100.00
9141;BME280;46330;50.822;7.126;2023-08-24T03:08:31;101034.00;;;18.03;100.00
9141;BME280;46330;50.822;7.126;2023-08-24T03:11:00;101039.84;;;18.11;100.00
9141;BME280;46330;50.822;7.126;2023-08-24T03:13:29;101036.38;;;18.09;100.00
9141;BME280;46330;50.822;7.126;2023-08-24T03:15:57;101034.59;;;18.10;100.00
9141;BME280;46330;50.822;7.126;2023-08-24T03:18:27;101034.81;;;18.05;100.00
9141;BME280;46330;50.822;7.126;2023-08-24T03:20:55;101030.28;;;18.07;100.00
9141;BME280;46330;50.822;7.126;2023-08-24T03:23:23;101025.88;;;18.08;99.96
9141;BME280;46330;50.822;7.126;2023-08-24T03:25:52;101013.53;;;18.07;100.00
9141;BME280;46330;50.822;7.126;2023-08-24T03:28:20;101013.69;;;18.04;100.00
9141;BME280;46330;50.822;7.126;2023-08-24T03:30:48;101015.13;;;18.11;99.88
9141;BME280;46330;50.822;7.126;2023-08-24T03:33:16;101018.44;;;18.16;99.66
9141;BME280;46330;50.822;7.126;2023-08-24T03:35:43;101014.72;;;18.20;100.00
9141;BME280;46330;50.822;7.126;2023-08-24T03:38:14;101022.72;;;18.18;100.00
9141;BME280;46330;50.822;7.126;2023-08-24T03:40:42;101026.38;;;18.16;100.00
9141;BME280;46330;50.822;7.126;2023-08-24T03:43:11;101029.03;;;18.16;100.00
9141;BME280;46330;50.822;7.126;2023-08-24T03:45:42;101042.53;;;18.10;100.00
9141;BME280;46330;50.822;7.126;2023-08-24T03:48:10;101061.41;;;18.02;100.00
9141;BME280;46330;50.822;7.126;2023-08-24T03:50:38;101061.19;;;18.07;100.00
9141;BME280;46330;50.822;7.126;2023-08-24T03:53:06;101076.16;;;18.08;100.00
9141;BME280;46330;50.822;7.126;2023-08-24T03:55:33;101104.47;;;18.06;100.00
9141;BME280;46330;50.822;7.126;2023-08-24T03:58:01;101107.03;;;18.09;100.00
9141;BME280;46330;50.822;7.126;2023-08-24T04:00:31;101114.69;;;18.15;100.00
9141;BME280;46330;50.822;7.126;2023-08-24T04:03:00;101119.88;;;18.18;100.00
9141;BME280;46330;50.822;7.126;2023-08-24T04:05:29;101124.44;;;18.14;100.00
9141;BME280;46330;50.822;7.126;2023-08-24T04:07:56;101123.47;;;18.15;100.00
9141;BME280;46330;50.822;7.126;2023-08-24T04:10:24;101126.94;;;18.17;100.00
9141;BME280;46330;50.822;7.126;2023-08-24T04:12:52;101122.38;;;18.21;100.00
9141;BME280;46330;50.822;7.126;2023-08-24T04:15:20;101119.50;;;18.25;100.00
9141;BME280;46330;50.822;7.126;2023-08-24T04:17:50;101115.09;;;18.26;99.66
9141;BME280;46330;50.822;7.126;2023-08-24T04:20:18;101101.38;;;18.16;98.91
9141;BME280;46330;50.822;7.126;2023-08-24T04:25:39;101103.44;;;18.10;99.19
9141;BME280;46330;50.822;7.126;2023-08-24T04:28:06;101097.41;;;18.06;99.23
9141;BME280;46330;50.822;7.126;2023-08-24T04:30:34;101092.38;;;18.00;99.47
9141;BME280;46330;50.822;7.126;2023-08-24T04:33:03;101089.72;;;18.00;99.78
9141;BME280;46330;50.822;7.126;2023-08-24T04:35:33;101096.78;;;18.00;100.00
9141;BME280;46330;50.822;7.126;2023-08-24T04:38:01;101096.78;;;18.00;100.00
9141;BME280;46330;50.822;7.126;2023-08-24T04:40:29;101108.94;;;18.05;100.00
9141;BME280;46330;50.822;7.126;2023-08-24T04:42:57;101118.53;;;18.08;100.00
9141;BME280;46330;50.822;7.126;2023-08-24T04:45:25;101124.75;;;18.07;100.00
9141;BME280;46330;50.822;7.126;2023-08-24T04:47:52;101124.69;;;18.08;100.00
9141;BME280;46330;50.822;7.126;2023-08-24T04:50:21;101115.06;;;18.06;100.00
9141;BME280;46330;50.822;7.126;2023-08-24T04:52:49;101100.25;;;18.02;100.00
9141;BME280;46330;50.822;7.126;2023-08-24T04:55:17;101081.16;;;17.94;100.00
9141;BME280;46330;50.822;7.126;2023-08-24T04:57:44;101070.38;;;17.78;100.00
9141;BME280;46330;50.822;7.126;2023-08-24T05:00:14;101063.44;;;17.76;100.00
9141;BME280;46330;50.822;7.126;2023-08-24T05:02:45;101040.88;;;17.67;100.00
9141;BME280;46330;50.822;7.126;2023-08-24T05:05:13;101030.56;;;17.61;100.00
9141;BME280;46330;50.822;7.126;2023-08-24T05:07:42;101029.13;;;17.52;100.00
9141;BME280;46330;50.822;7.126;2023-08-24T05:10:10;101044.16;;;17.50;100.00
9141;BME280;46330;50.822;7.126;2023-08-24T05:12:37;101056.34;;;17.56;100.00
9141;BME280;46330;50.822;7.126;2023-08-24T05:15:05;101084.19;;;17.64;100.00
9141;BME280;46330;50.822;7.126;2023-08-24T05:17:33;101087.63;;;17.66;100.00
9141;BME280;46330;50.822;7.126;2023-08-24T05:20:01;101076.31;;;17.63;100.00
9141;BME280;46330;50.822;7.126;2023-08-24T05:22:29;101060.50;;;17.61;100.00
9141;BME280;46330;50.822;7.126;2023-08-24T05:24:58;101046.41;;;17.61;100.00
9141;BME280;46330;50.822;7.126;2023-08-24T05:27:26;101015.72;;;17.57;100.00
9141;BME280;46330;50.822;7.126;2023-08-24T05:29:53;101001.06;;;17.48;100.00
9141;BME280;46330;50.822;7.126;2023-08-24T05:32:21;100988.63;;;17.50;100.00
9141;BME280;46330;50.822;7.126;2023-08-24T05:34:49;100972.28;;;17.41;100.00
9141;BME280;46330;50.822;7.126;2023-08-24T05:37:17;100971.50;;;17.39;100.00
9141;BME280;46330;50.822;7.126;2023-08-24T05:39:44;100969.38;;;17.47;100.00
9141;BME280;46330;50.822;7.126;2023-08-24T05:42:13;100968.59;;;17.45;100.00
9141;BME280;46330;50.822;7.126;2023-08-24T05:44:41;100956.22;;;17.45;100.00
9141;BME280;46330;50.822;7.126;2023-08-24T05:47:08;100953.47;;;17.48;100.00
9141;BME280;46330;50.822;7.126;2023-08-24T05:49:36;100951.47;;;17.53;100.00
9141;BME280;46330;50.822;7.126;2023-08-24T05:52:04;100959.91;;;17.63;100.00
9141;BME280;46330;50.822;7.126;2023-08-24T05:54:32;100946.66;;;17.63;100.00
9141;BME280;46330;50.822;7.126;2023-08-24T05:57:02;100962.16;;;17.72;100.00
9141;BME280;46330;50.822;7.126;2023-08-24T05:59:32;100960.81;;;17.82;100.00
9141;BME280;46330;50.822;7.126;2023-08-24T06:02:00;100948.91;;;17.92;100.00
9141;BME280;46330;50.822;7.126;2023-08-24T06:04:28;100942.34;;;18.01;100.00
9141;BME280;46330;50.822;7.126;2023-08-24T06:06:56;100932.63;;;18.01;100.00
9141;BME280;46330;50.822;7.126;2023-08-24T06:09:23;100933.84;;;18.13;100.00
9141;BME280;46330;50.822;7.126;2023-08-24T06:11:51;100924.13;;;18.13;100.00
9141;BME280;46330;50.822;7.126;2023-08-24T06:14:18;100923.78;;;18.21;100.00
9141;BME280;46330;50.822;7.126;2023-08-24T06:16:47;100921.03;;;18.22;100.00
9141;BME280;46330;50.822;7.126;2023-08-24T06:19:15;100904.81;;;18.30;100.00
9141;BME280;46330;50.822;7.126;2023-08-24T06:21:43;100910.88;;;18.32;100.00
9141;BME280;46330;50.822;7.126;2023-08-24T06:24:11;100926.00;;;18.49;100.00
9141;BME280;46330;50.822;7.126;2023-08-24T06:26:38;100929.84;;;18.79;100.00
9141;BME280;46330;50.822;7.126;2023-08-24T06:29:06;100921.25;;;19.10;100.00
9141;BME280;46330;50.822;7.126;2023-08-24T06:31:34;100915.63;;;19.16;100.00
9141;BME280;46330;50.822;7.126;2023-08-24T06:34:03;100916.59;;;19.66;100.00
9141;BME280;46330;50.822;7.126;2023-08-24T06:36:30;100914.44;;;20.23;96.10
9141;BME280;46330;50.822;7.126;2023-08-24T06:38:58;100906.84;;;20.48;94.57
9141;BME280;46330;50.822;7.126;2023-08-24T06:41:26;100899.09;;;20.75;92.44
9141;BME280;46330;50.822;7.126;2023-08-24T06:43:53;100898.31;;;21.04;90.78
9141;BME280;46330;50.822;7.126;2023-08-24T06:46:22;100895.22;;;21.41;88.94
9141;BME280;46330;50.822;7.126;2023-08-24T06:48:49;100890.94;;;21.53;86.42
9141;BME280;46330;50.822;7.126;2023-08-24T06:51:18;100900.53;;;21.56;86.27
9141;BME280;46330;50.822;7.126;2023-08-24T06:53:46;100895.84;;;22.03;84.55
9141;BME280;46330;50.822;7.126;2023-08-24T06:56:15;100893.50;;;22.39;81.13
9141;BME280;46330;50.822;7.126;2023-08-24T06:58:43;100899.22;;;22.47;81.75
9141;BME280;46330;50.822;7.126;2023-08-24T07:01:11;100907.84;;;22.10;81.42
9141;BME280;46330;50.822;7.126;2023-08-24T07:03:39;100900.31;;;22.03;81.61
9141;BME280;46330;50.822;7.126;2023-08-24T07:06:06;100895.16;;;21.71;81.07
9141;BME280;46330;50.822;7.126;2023-08-24T07:08:36;100884.16;;;22.06;81.25
9141;BME280;46330;50.822;7.126;2023-08-24T07:11:03;100881.09;;;22.67;78.73
9141;BME280;46330;50.822;7.126;2023-08-24T07:13:31;100882.00;;;22.39;79.36
9141;BME280;46330;50.822;7.126;2023-08-24T07:15:59;100875.78;;;22.52;78.29
9141;BME280;46330;50.822;7.126;2023-08-24T07:18:27;100858.69;;;23.48;75.40
9141;BME280;46330;50.822;7.126;2023-08-24T07:20:54;100861.56;;;23.45;75.38
9141;BME280;46330;50.822;7.126;2023-08-24T07:23:22;100862.94;;;23.88;72.07
9141;BME280;46330;50.822;7.126;2023-08-24T07:25:51;100866.81;;;24.70;69.73
9141;BME280;46330;50.822;7.126;2023-08-24T07:28:19;100852.34;;;24.48;68.85
9141;BME280;46330;50.822;7.126;2023-08-24T07:30:46;100852.78;;;25.02;67.09
9141;BME280;46330;50.822;7.126;2023-08-24T07:33:14;100844.13;;;24.75;67.62
9141;BME280;46330;50.822;7.126;2023-08-24T07:35:42;100844.66;;;25.15;66.24
9141;BME280;46330;50.822;7.126;2023-08-24T07:38:10;100855.16;;;25.29;65.23
9141;BME280;46330;50.822;7.126;2023-08-24T07:40:38;100856.50;;;25.81;63.47
9141;BME280;46330;50.822;7.126;2023-08-24T07:43:07;100867.22;;;25.92;61.72
9141;BME280;46330;50.822;7.126;2023-08-24T07:45:35;100867.78;;;26.62;60.06
9141;BME280;46330;50.822;7.126;2023-08-24T07:48:03;100866.56;;;26.44;60.36
9141;BME280;46330;50.822;7.126;2023-08-24T07:50:30;100861.84;;;26.25;60.52
9141;BME280;46330;50.822;7.126;2023-08-24T07:52:58;100865.00;;;26.41;59.90
9141;BME280;46330;50.822;7.126;2023-08-24T07:55:26;100861.19;;;27.18;58.29
9141;BME280;46330;50.822;7.126;2023-08-24T07:57:53;100860.94;;;27.21;54.74
9141;BME280;46330;50.822;7.126;2023-08-24T08:00:22;100869.59;;;27.25;55.24
9141;BME280;46330;50.822;7.126;2023-08-24T08:02:51;100871.22;;;27.48;53.86
9141;BME280;46330;50.822;7.126;2023-08-24T08:05:19;100869.25;;;26.55;56.04
9141;BME280;46330;50.822;7.126;2023-08-24T08:07:47;100867.47;;;26.33;55.52
9141;BME280;46330;50.822;7.126;2023-08-24T08:10:15;100865.34;;;26.59;55.72
9141;BME280;46330;50.822;7.126;2023-08-24T08:12:43;100863.94;;;26.76;54.83
9141;BME280;46330;50.822;7.126;2023-08-24T08:15:11;100865.03;;;27.37;53.77
9141;BME280;46330;50.822;7.126;2023-08-24T08:17:40;100864.47;;;27.84;50.90
9141;BME280;46330;50.822;7.126;2023-08-24T08:20:09;100862.13;;;28.00;51.38
9141;BME280;46330;50.822;7.126;2023-08-24T08:22:38;100849.03;;;28.07;49.52
9141;BME280;46330;50.822;7.126;2023-08-24T08:25:06;100844.09;;;28.21;50.29
9141;BME280;46330;50.822;7.126;2023-08-24T08:27:34;100850.28;;;28.62;48.26
9141;BME280;46330;50.822;7.126;2023-08-24T08:30:02;100845.41;;;27.97;49.89
9141;BME280;46330;50.822;7.126;2023-08-24T08:32:31;100847.50;;;28.83;48.88
9141;BME280;46330;50.822;7.126;2023-08-24T08:35:00;100850.19;;;28.73;48.12
9141;BME280;46330;50.822;7.126;2023-08-24T08:37:30;100854.84;;;28.80;47.53
9141;BME280;46330;50.822;7.126;2023-08-24T08:39:58;100853.72;;;27.84;48.69
9141;BME280;46330;50.822;7.126;2023-08-24T08:42:25;100836.88;;;28.22;49.00
9141;BME280;46330;50.822;7.126;2023-08-24T08:44:53;100830.78;;;28.69;48.92
9141;BME280;46330;50.822;7.126;2023-08-24T08:47:22;100827.63;;;28.64;47.40
9141;BME280;46330;50.822;7.126;2023-08-24T08:49:50;100833.13;;;28.63;46.06
9141;BME280;46330;50.822;7.126;2023-08-24T08:52:21;100832.38;;;28.32;47.81
9141;BME280;46330;50.822;7.126;2023-08-24T08:54:48;100833.91;;;28.15;48.21
9141;BME280;46330;50.822;7.126;2023-08-24T08:57:16;100819.22;;;27.89;49.57
9141;BME280;46330;50.822;7.126;2023-08-24T08:59:45;100814.09;;;28.16;48.88
9141;BME280;46330;50.822;7.126;2023-08-24T09:02:13;100809.47;;;28.47;47.99
9141;BME280;46330;50.822;7.126;2023-08-24T09:04:42;100798.00;;;28.64;48.10
9141;BME280;46330;50.822;7.126;2023-08-24T09:07:12;100800.84;;;28.63;46.00
9141;BME280;46330;50.822;7.126;2023-08-24T09:09:42;100785.75;;;28.12;48.11
9141;BME280;46330;50.822;7.126;2023-08-24T09:12:10;100781.97;;;28.63;47.57
9141;BME280;46330;50.822;7.126;2023-08-24T09:14:37;100771.78;;;29.05;47.16
9141;BME280;46330;50.822;7.126;2023-08-24T09:17:06;100767.50;;;29.12;45.17
9141;BME280;46330;50.822;7.126;2023-08-24T09:19:34;100754.34;;;29.92;44.32
9141;BME280;46330;50.822;7.126;2023-08-24T09:22:05;100759.44;;;29.95;44.41
9141;BME280;46330;50.822;7.126;2023-08-24T09:24:34;100745.13;;;29.58;44.14
9141;BME280;46330;50.822;7.126;2023-08-24T09:27:05;100738.13;;;29.18;44.48
9141;BME280;46330;50.822;7.126;2023-08-24T09:29:41;100720.03;;;29.01;46.00
9141;BME280;46330;50.822;7.126;2023-08-24T09:32:08;100715.13;;;29.98;44.51
9141;BME280;46330;50.822;7.126;2023-08-24T09:34:37;100710.22;;;29.56;44.27
9141;BME280;46330;50.822;7.126;2023-08-24T09:37:04;100704.94;;;30.09;43.03
9141;BME280;46330;50.822;7.126;2023-08-24T09:39:32;100708.41;;;29.74;42.90
9141;BME280;46330;50.822;7.126;2023-08-24T09:42:00;100698.13;;;29.60;42.95
9141;BME280;46330;50.822;7.126;2023-08-24T09:44:30;100701.97;;;30.48;41.62
9141;BME280;46330;50.822;7.126;2023-08-24T09:46:58;100703.16;;;29.46;42.17
9141;BME280;46330;50.822;7.126;2023-08-24T09:49:26;100719.31;;;30.63;41.02
9141;BME280;46330;50.822;7.126;2023-08-24T09:51:55;100718.00;;;30.31;39.98
9141;BME280;46330;50.822;7.126;2023-08-24T09:54:24;100717.38;;;31.16;39.14
9141;BME280;46330;50.822;7.126;2023-08-24T09:56:54;100718.28;;;30.64;39.79
9141;BME280;46330;50.822;7.126;2023-08-24T09:59:22;100722.41;;;30.50;39.64
9141;BME280;46330;50.822;7.126;2023-08-24T10:01:52;100718.91;;;30.58;39.61
9141;BME280;46330;50.822;7.126;2023-08-24T10:04:24;100719.34;;;31.40;38.56
9141;BME280;46330;50.822;7.126;2023-08-24T10:06:52;100722.78;;;30.73;40.37
9141;BME280;46330;50.822;7.126;2023-08-24T10:09:25;100740.63;;;30.66;39.00
9141;BME280;46330;50.822;7.126;2023-08-24T10:11:58;100737.75;;;31.62;37.44
9141;BME280;46330;50.822;7.126;2023-08-24T10:14:29;100726.72;;;30.61;39.00
9141;BME280;46330;50.822;7.126;2023-08-24T10:16:59;100731.50;;;30.31;39.68
9141;BME280;46330;50.822;7.126;2023-08-24T10:19:26;100739.91;;;29.83;40.38
9141;BME280;46330;50.822;7.126;2023-08-24T10:21:55;100733.97;;;29.70;39.13
9141;BME280;46330;50.822;7.126;2023-08-24T10:24:23;100741.13;;;30.16;38.17
9141;BME280;46330;50.822;7.126;2023-08-24T10:26:51;100738.06;;;29.84;39.22
9141;BME280;46330;50.822;7.126;2023-08-24T10:29:20;100737.28;;;29.27;39.86
9141;BME280;46330;50.822;7.126;2023-08-24T10:31:48;100741.56;;;29.94;42.90
9141;BME280;46330;50.822;7.126;2023-08-24T10:34:18;100745.59;;;30.96;41.80
9141;BME280;46330;50.822;7.126;2023-08-24T10:36:47;100741.91;;;30.97;40.27
9141;BME280;46330;50.822;7.126;2023-08-24T10:39:14;100759.13;;;31.48;40.83
9141;BME280;46330;50.822;7.126;2023-08-24T10:41:46;100756.34;;;30.08;41.68
9141;BME280;46330;50.822;7.126;2023-08-24T10:44:19;100769.41;;;30.57;40.73
9141;BME280;46330;50.822;7.126;2023-08-24T10:47:08;100768.00;;;30.71;41.34
9141;BME280;46330;50.822;7.126;2023-08-24T10:49:40;100773.03;;;30.48;40.72
9141;BME280;46330;50.822;7.126;2023-08-24T10:52:16;100756.63;;;30.32;41.00
9141;BME280;46330;50.822;7.126;2023-08-24T10:54:45;100754.75;;;30.60;39.17
9141;BME280;46330;50.822;7.126;2023-08-24T10:57:17;100746.81;;;31.02;39.91
9141;BME280;46330;50.822;7.126;2023-08-24T10:59:45;100748.63;;;30.58;40.41
9141;BME280;46330;50.822;7.126;2023-08-24T11:02:17;100744.69;;;30.52;40.13
9141;BME280;46330;50.822;7.126;2023-08-24T11:07:48;100748.38;;;30.86;39.52
9141;BME280;46330;50.822;7.126;2023-08-24T11:10:16;100749.69;;;30.82;40.55
9141;BME280;46330;50.822;7.126;2023-08-24T11:15:31;100732.03;;;30.35;40.24
9141;BME280;46330;50.822;7.126;2023-08-24T11:18:15;100726.75;;;31.04;39.32
9141;BME280;46330;50.822;7.126;2023-08-24T11:20:47;100724.72;;;31.32;39.22
9141;BME280;46330;50.822;7.126;2023-08-24T11:23:16;100727.72;;;30.42;39.51
9141;BME280;46330;50.822;7.126;2023-08-24T11:25:44;100731.72;;;30.73;40.36
9141;BME280;46330;50.822;7.126;2023-08-24T11:28:16;100729.66;;;30.93;39.87
9141;BME280;46330;50.822;7.126;2023-08-24T11:30:44;100727.75;;;31.03;39.33
9141;BME280;46330;50.822;7.126;2023-08-24T11:33:12;100732.31;;;30.85;39.90
9141;BME280;46330;50.822;7.126;2023-08-24T11:35:41;100736.91;;;30.67;40.13
9141;BME280;46330;50.822;7.126;2023-08-24T11:38:09;100737.53;;;30.43;40.78
9141;BME280;46330;50.822;7.126;2023-08-24T11:40:39;100734.16;;;29.96;41.78
9141;BME280;46330;50.822;7.126;2023-08-24T11:43:06;100738.31;;;30.08;41.53
9141;BME280;46330;50.822;7.126;2023-08-24T11:45:35;100747.88;;;30.48;42.24
9141;BME280;46330;50.822;7.126;2023-08-24T11:48:03;100759.59;;;30.11;42.30
9141;BME280;46330;50.822;7.126;2023-08-24T11:50:32;100760.16;;;29.60;42.37
9141;BME280;46330;50.822;7.126;2023-08-24T11:53:01;100783.81;;;29.29;42.21
9141;BME280;46330;50.822;7.126;2023-08-24T11:55:29;100804.38;;;29.30;42.83
9141;BME280;46330;50.822;7.126;2023-08-24T11:57:59;100811.59;;;29.30;43.46
9141;BME280;46330;50.822;7.126;2023-08-24T12:00:27;100822.97;;;29.05;44.08
9141;BME280;46330;50.822;7.126;2023-08-24T12:02:57;100806.78;;;29.14;43.98
9141;BME280;46330;50.822;7.126;2023-08-24T12:05:25;100802.28;;;28.76;45.11
9141;BME280;46330;50.822;7.126;2023-08-24T12:07:54;100812.34;;;28.74;44.68
9141;BME280;46330;50.822;7.126;2023-08-24T12:10:22;100810.59;;;29.12;45.11
9141;BME280;46330;50.822;7.126;2023-08-24T12:13:00;100794.16;;;29.34;45.42
9141;BME280;46330;50.822;7.126;2023-08-24T12:15:29;100787.78;;;29.25;45.07
9141;BME280;46330;50.822;7.126;2023-08-24T12:17:57;100792.13;;;29.46;44.86
9141;BME280;46330;50.822;7.126;2023-08-24T12:20:24;100787.16;;;29.51;45.18
9141;BME280;46330;50.822;7.126;2023-08-24T12:22:53;100785.28;;;28.95;45.66
9141;BME280;46330;50.822;7.126;2023-08-24T12:25:24;100767.41;;;28.65;45.97
9141;BME280;46330;50.822;7.126;2023-08-24T12:27:52;100769.66;;;28.51;48.44
9141;BME280;46330;50.822;7.126;2023-08-24T12:30:19;100755.91;;;28.63;48.55
9141;BME280;46330;50.822;7.126;2023-08-24T12:32:49;100766.38;;;28.38;48.17
9141;BME280;46330;50.822;7.126;2023-08-24T12:35:18;100758.88;;;28.41;48.82
9141;BME280;46330;50.822;7.126;2023-08-24T12:37:46;100760.31;;;28.36;48.70
9141;BME280;46330;50.822;7.126;2023-08-24T12:40:14;100763.13;;;28.53;49.45
9141;BME280;46330;50.822;7.126;2023-08-24T12:42:42;100751.56;;;27.94;51.02
9141;BME280;46330;50.822;7.126;2023-08-24T12:45:10;100749.91;;;28.12;52.57
9141;BME280;46330;50.822;7.126;2023-08-24T12:47:38;100753.09;;;27.96;53.00
9141;BME280;46330;50.822;7.126;2023-08-24T12:50:07;100751.75;;;27.71;54.17
9141;BME280;46330;50.822;7.126;2023-08-24T12:52:35;100742.63;;;27.93;55.67
9141;BME280;46330;50.822;7.126;2023-08-24T12:55:03;100736.75;;;27.69;55.34
9141;BME280;46330;50.822;7.126;2023-08-24T12:57:31;100726.25;;;27.56;58.82
9141;BME280;46330;50.822;7.126;2023-08-24T12:59:58;100710.13;;;26.64;65.21
9141;BME280;46330;50.822;7.126;2023-08-24T13:02:26;100710.31;;;26.72;67.91
9141;BME280;46330;50.822;7.126;2023-08-24T13:05:04;100697.31;;;26.88;68.03
9141;BME280;46330;50.822;7.126;2023-08-24T13:07:34;100675.31;;;26.73;69.59
9141;BME280;46330;50.822;7.126;2023-08-24T13:10:03;100656.63;;;26.72;69.41
9141;BME280;46330;50.822;7.126;2023-08-24T13:12:31;100656.13;;;26.78;71.49
9141;BME280;46330;50.822;7.126;2023-08-24T13:14:59;100665.66;;;26.82;71.18